San Gwann — 9HYT6 — position and weather

sailwx.info

Track history (hours):
 
Tides and Currents Weather Stations Pressure Air Temp Water Temp Dewpoint Dewpoint Depression Visibility Wind Speed Wind Dir Waves Ship Positions

San Gwann

Last reported at 2018-May-20 10:00 UTC. Time now 2018-May-20 09:58 UTC.
Position N 25°47' W 080°11'.

Length 51 m; draft 2.2 m.

Type: High speed craft. MMSI: 248984000.

Date/timePositionNaut miles runAvg speedWind from/ knotsBaromVisibWave heightAir tempDewpointWater temp
2018-May-20 10:00N 25°47' W 080°11'0 0.0
2018-May-20 09:30N 25°47' W 080°11'0 0.0
2018-May-20 09:00N 25°47' W 080°11'0 0.0
2018-May-20 08:30N 25°47' W 080°11'0 0.0
2018-May-20 08:00N 25°47' W 080°11'0 0.0
2018-May-20 07:30N 25°47' W 080°11'0 0.0
2018-May-20 07:00N 25°47' W 080°11'0 0.0
2018-May-20 06:30N 25°47' W 080°11'0 0.0
2018-May-20 06:00N 25°47' W 080°11'0 0.0
2018-May-20 05:30N 25°47' W 080°11'0 0.0
2018-May-20 05:00N 25°47' W 080°11'0 0.0
2018-May-20 04:30N 25°47' W 080°11'0 0.0
2018-May-20 04:00N 25°47' W 080°11'0 0.0
2018-May-20 03:30N 25°47' W 080°11'0 0.0
2018-May-20 03:00N 25°47' W 080°11'0 0.0
2018-May-20 02:30N 25°47' W 080°11'0 0.0
2018-May-20 02:00N 25°47' W 080°11'0 0.0
2018-May-20 01:30N 25°47' W 080°11'0 0.0
2018-May-20 01:00N 25°47' W 080°11'0 0.3
2018-May-20 00:31N 25°47' W 080°11'0 0.1
2018-May-20 00:00N 25°47' W 080°11'715.0
2018-May-19 23:30N 25°46' W 080°02'15 1.5
2018-May-19 13:59N 25°46' W 079°46'1532.4
2018-May-19 13:30N 25°46' W 080°03'714.1
2018-May-19 13:00N 25°47' W 080°11'0 0.0
2018-May-19 12:30N 25°47' W 080°11'0 0.0
2018-May-19 12:01N 25°47' W 080°11'0 0.0
2018-May-19 11:30N 25°47' W 080°11'0 0.0
2018-May-19 11:00N 25°47' W 080°11'0 0.0
2018-May-19 10:30N 25°47' W 080°11'0 0.0
2018-May-19 10:00N 25°47' W 080°11'0 0.0
2018-May-19 09:30N 25°47' W 080°11'0 0.0
2018-May-19 09:00N 25°47' W 080°11'0 0.0
2018-May-19 08:30N 25°47' W 080°11'0 0.0
2018-May-19 08:01N 25°47' W 080°11'0 0.0
2018-May-19 07:30N 25°47' W 080°11'0 0.0
2018-May-19 07:00N 25°47' W 080°11'0 0.0
2018-May-19 06:30N 25°47' W 080°11'0 0.0
2018-May-19 05:59N 25°47' W 080°11'0 0.0
2018-May-19 05:30N 25°47' W 080°11'0 0.0
2018-May-19 05:00N 25°47' W 080°11'0 0.0
2018-May-19 04:31N 25°47' W 080°11'0 0.0
2018-May-19 04:00N 25°47' W 080°11'0 0.0
2018-May-19 03:30N 25°47' W 080°11'0 0.0
2018-May-19 03:00N 25°47' W 080°11'0 0.0
2018-May-19 02:29N 25°47' W 080°11'0 0.0
2018-May-19 02:00N 25°47' W 080°11'0 0.0
2018-May-19 01:31N 25°47' W 080°11'0 0.0
2018-May-19 01:00N 25°47' W 080°11'0 0.0
2018-May-19 00:31N 25°47' W 080°11'0 0.4
2018-May-19 00:00N 25°47' W 080°11'714.1
2018-May-18 23:30N 25°46' W 080°03'15 1.7
2018-May-18 14:28N 25°46' W 079°46'1532.0
2018-May-18 14:01N 25°46' W 080°03'713.9
2018-May-18 13:30N 25°47' W 080°10'1 1.0
2018-May-18 13:00N 25°47' W 080°11'0 0.0
2018-May-18 12:30N 25°47' W 080°11'0 0.0
2018-May-18 12:01N 25°47' W 080°11'0 0.0
2018-May-18 11:31N 25°47' W 080°11'0 0.0
2018-May-18 11:01N 25°47' W 080°11'0 0.0
2018-May-18 10:31N 25°47' W 080°11'0 0.0
2018-May-18 10:01N 25°47' W 080°11'0 0.0
2018-May-18 09:30N 25°47' W 080°11'0 0.0
2018-May-18 09:01N 25°47' W 080°11'0 0.0
2018-May-18 08:30N 25°47' W 080°11'0 0.0
2018-May-18 07:59N 25°47' W 080°11'0 0.0
2018-May-18 07:30N 25°47' W 080°11'0 0.0
2018-May-18 07:00N 25°47' W 080°11'0 0.0
2018-May-18 06:30N 25°47' W 080°11'0 0.0
2018-May-18 06:00N 25°47' W 080°11'0 0.0
2018-May-18 05:30N 25°47' W 080°11'0 0.0
2018-May-18 05:00N 25°47' W 080°11'0 0.0
2018-May-18 04:30N 25°47' W 080°11'0 0.0
2018-May-18 04:00N 25°47' W 080°11'0 0.0
2018-May-18 03:30N 25°47' W 080°11'0 0.0
2018-May-18 03:00N 25°47' W 080°11'0 0.0
2018-May-18 02:30N 25°47' W 080°11'0 0.0
2018-May-18 02:00N 25°47' W 080°11'0 0.0
2018-May-18 01:30N 25°47' W 080°11'0 0.0
2018-May-18 01:00N 25°47' W 080°11'0 0.0
2018-May-18 00:31N 25°47' W 080°11'0 0.0
2018-May-18 00:00N 25°47' W 080°11'0 0.0
2018-May-17 23:30N 25°47' W 080°11'0 0.0
2018-May-17 23:01N 25°47' W 080°11'0 0.0
2018-May-17 22:30N 25°47' W 080°11'0 0.0
2018-May-17 22:01N 25°47' W 080°11'0 0.0
2018-May-17 21:30N 25°47' W 080°11'0 0.0
2018-May-17 21:00N 25°47' W 080°11'0 0.0
2018-May-17 20:30N 25°47' W 080°11'0 0.0
2018-May-17 20:00N 25°47' W 080°11'0 0.0
2018-May-17 19:30N 25°47' W 080°11'0 0.0
2018-May-17 19:01N 25°47' W 080°11'0 0.0
2018-May-17 18:30N 25°47' W 080°11'0 0.0
2018-May-17 18:00N 25°47' W 080°11'0 0.0
2018-May-17 17:30N 25°47' W 080°11'0 0.0
2018-May-17 17:00N 25°47' W 080°11'0 0.0
2018-May-17 16:30N 25°47' W 080°11'0 0.0
2018-May-17 16:01N 25°47' W 080°11'0 0.0
2018-May-17 15:30N 25°47' W 080°11'0 0.0
2018-May-17 15:00N 25°47' W 080°11'0 0.0
2018-May-17 14:30N 25°47' W 080°11'0 0.0
2018-May-17 14:00N 25°47' W 080°11'0 0.0
2018-May-17 13:30N 25°47' W 080°11'0 0.0
2018-May-17 13:00N 25°47' W 080°11'0 0.0
2018-May-17 12:31N 25°47' W 080°11'0 0.0
2018-May-17 12:01N 25°47' W 080°11'0 0.0
2018-May-17 11:30N 25°47' W 080°11'0 0.0
2018-May-17 11:00N 25°47' W 080°11'0 0.0
2018-May-17 10:30N 25°47' W 080°11'0 0.0
2018-May-17 10:01N 25°47' W 080°11'0 0.0
2018-May-17 09:30N 25°47' W 080°11'0 0.0
2018-May-17 09:00N 25°47' W 080°11'0 0.0
2018-May-17 08:31N 25°47' W 080°11'0 0.0
2018-May-17 08:00N 25°47' W 080°11'0 0.0
2018-May-17 07:30N 25°47' W 080°11'0 0.0
2018-May-17 07:00N 25°47' W 080°11'0 0.0
2018-May-17 06:30N 25°47' W 080°11'0 0.0
2018-May-17 06:01N 25°47' W 080°11'0 0.0
2018-May-17 05:30N 25°47' W 080°11'0 0.0
2018-May-17 05:00N 25°47' W 080°11'0 0.0
2018-May-17 04:30N 25°47' W 080°11'0 0.0
2018-May-17 04:00N 25°47' W 080°11'0 0.0
2018-May-17 03:30N 25°47' W 080°11'0 0.0
2018-May-17 03:00N 25°47' W 080°11'0 0.0
2018-May-17 02:30N 25°47' W 080°11'0 0.0
2018-May-17 02:00N 25°47' W 080°11'0 0.0
2018-May-17 01:31N 25°47' W 080°11'0 0.0
2018-May-17 01:00N 25°47' W 080°11'0 0.4
2018-May-17 00:30N 25°47' W 080°11'2 4.1
2018-May-17 00:01N 25°46' W 080°09'21 2.2
2018-May-16 14:27N 25°46' W 079°45'1328.8
2018-May-16 14:00N 25°46' W 079°59'1019.5
2018-May-16 13:31N 25°46' W 080°10'1 2.4
2018-May-16 13:00N 25°47' W 080°11'0 0.0
2018-May-16 12:30N 25°47' W 080°11'0 0.0
2018-May-16 12:00N 25°47' W 080°11'0 0.0
2018-May-16 11:30N 25°47' W 080°11'0 0.0
2018-May-16 11:00N 25°47' W 080°11'0 0.0
2018-May-16 10:30N 25°47' W 080°11'0 0.0
2018-May-16 10:00N 25°47' W 080°11'0 0.0
2018-May-16 09:30N 25°47' W 080°11'0 0.0
2018-May-16 09:00N 25°47' W 080°11'0 0.0
2018-May-16 08:30N 25°47' W 080°11'0 0.0
2018-May-16 08:00N 25°47' W 080°11'0 0.0
2018-May-16 07:30N 25°47' W 080°11'0 0.0
2018-May-16 07:00N 25°47' W 080°11'0 0.0
2018-May-16 06:30N 25°47' W 080°11'0 0.0
2018-May-16 06:00N 25°47' W 080°11'0 0.0
2018-May-16 05:29N 25°47' W 080°11'0 0.0
2018-May-16 05:00N 25°47' W 080°11'0 0.0
2018-May-16 04:30N 25°47' W 080°11'0 0.0
2018-May-16 04:00N 25°47' W 080°11'0 0.0
2018-May-16 03:30N 25°47' W 080°11'0 0.0
2018-May-16 03:00N 25°47' W 080°11'0 0.0
2018-May-16 02:30N 25°47' W 080°11'0 0.0
2018-May-16 02:00N 25°47' W 080°11'0 0.0
2018-May-16 01:30N 25°47' W 080°11'0 0.0
2018-May-16 01:00N 25°47' W 080°11'0 0.0
2018-May-16 00:30N 25°47' W 080°11'0 0.0
2018-May-16 00:00N 25°47' W 080°11'0 0.0
2018-May-15 23:30N 25°47' W 080°11'0 0.0
2018-May-15 23:00N 25°47' W 080°11'0 0.0
2018-May-15 22:30N 25°47' W 080°11'0 0.0
2018-May-15 22:00N 25°47' W 080°11'0 0.0
2018-May-15 21:30N 25°47' W 080°11'0 0.0
2018-May-15 21:00N 25°47' W 080°11'0 0.0
2018-May-15 20:30N 25°47' W 080°11'0 0.0
2018-May-15 20:00N 25°47' W 080°11'0 0.0
2018-May-15 19:30N 25°47' W 080°11'0 0.0
2018-May-15 19:00N 25°47' W 080°11'0 0.0
2018-May-15 18:30N 25°47' W 080°11'0 0.0
2018-May-15 18:00N 25°47' W 080°11'0 0.0
2018-May-15 17:30N 25°47' W 080°11'0 0.0
2018-May-15 17:01N 25°47' W 080°11'0 0.0
2018-May-15 16:30N 25°47' W 080°11'0 0.0
2018-May-15 16:00N 25°47' W 080°11'0 0.0
2018-May-15 15:30N 25°47' W 080°11'0 0.0
2018-May-15 15:00N 25°47' W 080°11'0 0.0
2018-May-15 14:30N 25°47' W 080°11'0 0.0
2018-May-15 14:00N 25°47' W 080°11'0 0.0
2018-May-15 13:30N 25°47' W 080°11'0 0.0
2018-May-15 13:00N 25°47' W 080°11'0 0.0
2018-May-15 12:30N 25°47' W 080°11'0 0.0
2018-May-15 12:00N 25°47' W 080°11'0 0.0
2018-May-15 11:30N 25°47' W 080°11'0 0.0
2018-May-15 11:00N 25°47' W 080°11'0 0.0
2018-May-15 10:30N 25°47' W 080°11'0 0.0
2018-May-15 10:00N 25°47' W 080°11'0 0.0
2018-May-15 09:30N 25°47' W 080°11'0 0.0
2018-May-15 09:00N 25°47' W 080°11'0 0.0
2018-May-15 08:30N 25°47' W 080°11'0 0.0
2018-May-15 08:00N 25°47' W 080°11'0 0.0
2018-May-15 07:30N 25°47' W 080°11'0 0.0
2018-May-15 07:00N 25°47' W 080°11'0 0.0
2018-May-15 06:30N 25°47' W 080°11'0 0.0
2018-May-15 05:59N 25°47' W 080°11'0 0.0
2018-May-15 05:30N 25°47' W 080°11'0 0.0
2018-May-15 05:00N 25°47' W 080°11'0 0.0
2018-May-15 04:30N 25°47' W 080°11'0 0.0
2018-May-15 04:00N 25°47' W 080°11'0 0.0
2018-May-15 03:30N 25°47' W 080°11'0 0.0
2018-May-15 03:00N 25°47' W 080°11'0 0.0
2018-May-15 02:30N 25°47' W 080°11'0 0.0
2018-May-15 02:00N 25°47' W 080°11'0 0.0
2018-May-15 01:29N 25°47' W 080°11'0 0.0
2018-May-15 00:59N 25°47' W 080°11'0 0.0
2018-May-15 00:30N 25°47' W 080°11'0 0.0
2018-May-15 00:00N 25°47' W 080°11'0 0.0
2018-May-14 23:30N 25°47' W 080°11'0 0.0
2018-May-14 23:00N 25°47' W 080°11'0 0.0
2018-May-14 22:30N 25°47' W 080°11'0 0.0
2018-May-14 22:00N 25°47' W 080°11'0 0.0
2018-May-14 21:30N 25°47' W 080°11'0 0.0
2018-May-14 21:00N 25°47' W 080°11'0 0.0
2018-May-14 20:30N 25°47' W 080°11'0 0.0
2018-May-14 20:00N 25°47' W 080°11'0 0.0
2018-May-14 19:30N 25°47' W 080°11'0 0.0
2018-May-14 19:00N 25°47' W 080°11'0 0.0
2018-May-14 18:30N 25°47' W 080°11'0 0.0
2018-May-14 18:00N 25°47' W 080°11'0 0.0
2018-May-14 17:30N 25°47' W 080°11'0 0.0
2018-May-14 17:00N 25°47' W 080°11'0 0.0
2018-May-14 16:30N 25°47' W 080°11'0 0.0
2018-May-14 16:00N 25°47' W 080°11'0 0.0
2018-May-14 15:30N 25°47' W 080°11'0 0.0
2018-May-14 15:00N 25°47' W 080°11'0 0.0
2018-May-14 14:30N 25°47' W 080°11'0 0.0
2018-May-14 14:00N 25°47' W 080°11'0 0.0
2018-May-14 13:30N 25°47' W 080°11'0 0.0
2018-May-14 13:00N 25°47' W 080°11'0 0.0
2018-May-14 12:30N 25°47' W 080°11'0 0.0
2018-May-14 12:00N 25°47' W 080°11'0 0.0
2018-May-14 11:30N 25°47' W 080°11'0 0.0
2018-May-14 11:00N 25°47' W 080°11'0 0.0
2018-May-14 10:30N 25°47' W 080°11'0 0.0
2018-May-14 10:00N 25°47' W 080°11'0 0.0
2018-May-14 09:30N 25°47' W 080°11'0 0.0
2018-May-14 09:00N 25°47' W 080°11'0 0.0
2018-May-14 08:30N 25°47' W 080°11'0 0.0
2018-May-14 08:00N 25°47' W 080°11'0 0.0
2018-May-14 07:30N 25°47' W 080°11'0 0.0
2018-May-14 07:00N 25°47' W 080°11'0 0.0
2018-May-14 06:30N 25°47' W 080°11'0 0.0
2018-May-14 06:00N 25°47' W 080°11'0 0.0
2018-May-14 05:30N 25°47' W 080°11'0 0.0
2018-May-14 05:00N 25°47' W 080°11'0 0.0
2018-May-14 04:30N 25°47' W 080°11'0 0.0
2018-May-14 04:00N 25°47' W 080°11'0 0.0
2018-May-14 03:30N 25°47' W 080°11'0 0.0
2018-May-14 03:00N 25°47' W 080°11'0 0.0
2018-May-14 02:30N 25°47' W 080°11'0 0.0
2018-May-14 02:00N 25°47' W 080°11'0 0.0
2018-May-14 01:30N 25°47' W 080°11'0 0.4
2018-May-14 01:00N 25°47' W 080°11'0 0.0
2018-May-14 00:30N 25°47' W 080°11'1 1.7
2018-May-14 00:00N 25°47' W 080°10'1323.4
2018-May-13 23:28N 25°46' W 079°56'12 1.3
2018-May-13 14:00N 25°46' W 079°42'1632.2
2018-May-13 13:30N 25°46' W 079°60'918.4
2018-May-13 13:00N 25°47' W 080°10'1 1.3
2018-May-13 12:30N 25°47' W 080°11'0 0.0
2018-May-13 12:00N 25°47' W 080°11'0 0.0
2018-May-13 11:30N 25°47' W 080°11'0 0.0
2018-May-13 11:00N 25°47' W 080°11'0 0.0
2018-May-13 10:30N 25°47' W 080°11'0 0.0
2018-May-13 10:01N 25°47' W 080°11'0 0.0
2018-May-13 09:30N 25°47' W 080°11'0 0.0
2018-May-13 09:00N 25°47' W 080°11'0 0.0
2018-May-13 08:31N 25°47' W 080°11'0 0.0
2018-May-13 08:01N 25°47' W 080°11'0 0.0
2018-May-13 07:31N 25°47' W 080°11'0 0.0
2018-May-13 07:00N 25°47' W 080°11'0 0.0
2018-May-13 06:31N 25°47' W 080°11'0 0.0
2018-May-13 05:59N 25°47' W 080°11'0 0.0
2018-May-13 05:30N 25°47' W 080°11'0 0.0
2018-May-13 05:01N 25°47' W 080°11'0 0.0
2018-May-13 04:30N 25°47' W 080°11'0 0.0
2018-May-13 04:00N 25°47' W 080°11'0 0.0
2018-May-13 03:30N 25°47' W 080°11'0 0.0
2018-May-13 03:01N 25°47' W 080°11'0 0.0
2018-May-13 02:30N 25°47' W 080°11'0 0.0
2018-May-13 02:00N 25°47' W 080°11'0 0.0
2018-May-13 01:30N 25°47' W 080°11'0 0.0
2018-May-13 01:00N 25°47' W 080°11'0 0.4
2018-May-13 00:30N 25°47' W 080°11'1 2.8
2018-May-13 00:00N 25°46' W 080°09'1122.3
2018-May-12 23:30N 25°46' W 079°57'10 1.2
2018-May-12 14:42N 25°46' W 079°45'631.6
2018-May-12 14:30N 25°46' W 079°52'1428.7
2018-May-12 14:01N 25°46' W 080°08'3 5.7
2018-May-12 13:31N 25°47' W 080°11'0 0.0
2018-May-12 13:01N 25°47' W 080°11'0 0.0
2018-May-12 12:31N 25°47' W 080°11'0 0.0
2018-May-12 12:00N 25°47' W 080°11'0 0.0
2018-May-12 11:30N 25°47' W 080°11'0 0.0
2018-May-12 11:01N 25°47' W 080°11'0 0.0
2018-May-12 10:30N 25°47' W 080°11'0 0.0
2018-May-12 10:01N 25°47' W 080°11'0 0.0
2018-May-12 09:30N 25°47' W 080°11'0 0.0
2018-May-12 09:00N 25°47' W 080°11'0 0.0
2018-May-12 08:30N 25°47' W 080°11'0 0.0
2018-May-12 08:01N 25°47' W 080°11'0 0.0
2018-May-12 07:30N 25°47' W 080°11'0 0.0
2018-May-12 07:01N 25°47' W 080°11'0 0.0
2018-May-12 06:30N 25°47' W 080°11'0 0.0
2018-May-12 06:00N 25°47' W 080°11'0 0.0
2018-May-12 05:30N 25°47' W 080°11'0 0.0
2018-May-12 05:00N 25°47' W 080°11'0 0.0
2018-May-12 04:30N 25°47' W 080°11'0 0.0
2018-May-12 04:01N 25°47' W 080°11'0 0.0
2018-May-12 03:30N 25°47' W 080°11'0 0.0
2018-May-12 03:00N 25°47' W 080°11'0 0.0
2018-May-12 02:30N 25°47' W 080°11'0 0.0
2018-May-12 02:01N 25°47' W 080°11'0 0.0
2018-May-12 01:31N 25°47' W 080°11'0 0.0
2018-May-12 01:00N 25°47' W 080°11'0 0.4
2018-May-12 00:31N 25°47' W 080°11'0 0.9
2018-May-12 00:00N 25°47' W 080°10'1020.1
2018-May-11 23:30N 25°46' W 079°59'11 1.2
2018-May-11 14:13N 25°46' W 079°46'626.7
2018-May-11 14:00N 25°46' W 079°53'1427.7
2018-May-11 13:30N 25°46' W 080°08'3 5.1
2018-May-11 13:00N 25°47' W 080°11'0 0.0
2018-May-11 12:30N 25°47' W 080°11'0 0.0
2018-May-11 12:00N 25°47' W 080°11'0 0.0
2018-May-11 11:30N 25°47' W 080°11'0 0.0
2018-May-11 11:00N 25°47' W 080°11'0 0.0
2018-May-11 10:30N 25°47' W 080°11'0 0.0
2018-May-11 10:00N 25°47' W 080°11'0 0.0
2018-May-11 09:30N 25°47' W 080°11'0 0.0
2018-May-11 09:00N 25°47' W 080°11'0 0.0
2018-May-11 08:30N 25°47' W 080°11'0 0.0
2018-May-11 08:00N 25°47' W 080°11'0 0.0
2018-May-11 07:30N 25°47' W 080°11'0 0.0
2018-May-11 07:00N 25°47' W 080°11'0 0.0
2018-May-11 06:30N 25°47' W 080°11'0 0.0
2018-May-11 06:00N 25°47' W 080°11'0 0.0
2018-May-11 05:30N 25°47' W 080°11'0 0.0
2018-May-11 05:00N 25°47' W 080°11'0 0.0
2018-May-11 04:29N 25°47' W 080°11'0 0.0
2018-May-11 04:00N 25°47' W 080°11'0 0.0
2018-May-11 03:30N 25°47' W 080°11'0 0.0
2018-May-11 03:00N 25°47' W 080°11'0 0.0
2018-May-11 02:30N 25°47' W 080°11'0 0.0
2018-May-11 02:00N 25°47' W 080°11'0 0.0
2018-May-11 01:30N 25°47' W 080°11'0 0.0
2018-May-11 01:00N 25°47' W 080°11'0 0.0
2018-May-11 00:30N 25°47' W 080°11'0 0.0
2018-May-11 00:00N 25°47' W 080°11'0 0.0
2018-May-10 23:30N 25°47' W 080°11'0 0.0
2018-May-10 23:00N 25°47' W 080°11'0 0.0
2018-May-10 22:30N 25°47' W 080°11'0 0.0
2018-May-10 22:00N 25°47' W 080°11'0 0.0
2018-May-10 21:30N 25°47' W 080°11'0 0.0
2018-May-10 21:00N 25°47' W 080°11'0 0.0
2018-May-10 20:30N 25°47' W 080°11'0 0.0
2018-May-10 20:00N 25°47' W 080°11'0 0.0
2018-May-10 19:30N 25°47' W 080°11'0 0.0
2018-May-10 19:00N 25°47' W 080°11'0 0.0
2018-May-10 18:30N 25°47' W 080°11'0 0.0
2018-May-10 18:00N 25°47' W 080°11'0 0.0
2018-May-10 17:30N 25°47' W 080°11'0 0.0
2018-May-10 17:00N 25°47' W 080°11'0 0.0
2018-May-10 16:30N 25°47' W 080°11'0 0.0
2018-May-10 16:00N 25°47' W 080°11'0 0.0
2018-May-10 15:30N 25°47' W 080°11'0 0.0
2018-May-10 15:00N 25°47' W 080°11'0 0.0
2018-May-10 14:30N 25°47' W 080°11'0 0.0
2018-May-10 14:00N 25°47' W 080°11'0 0.0
2018-May-10 13:30N 25°47' W 080°11'0 0.0
2018-May-10 13:00N 25°47' W 080°11'0 0.0
2018-May-10 12:30N 25°47' W 080°11'0 0.0
2018-May-10 12:00N 25°47' W 080°11'0 0.0
2018-May-10 11:30N 25°47' W 080°11'0 0.0
2018-May-10 11:00N 25°47' W 080°11'0 0.0
2018-May-10 10:29N 25°47' W 080°11'0 0.0
2018-May-10 10:00N 25°47' W 080°11'0 0.0
2018-May-10 09:30N 25°47' W 080°11'  
Track history (hours):
 
Tides and Currents Weather Stations Pressure Air Temp Water Temp Dewpoint Dewpoint Depression Visibility Wind Speed Wind Dir Waves Ship Positions

San Gwann

Last reported at 2018-May-20 10:00 UTC. Time now 2018-May-20 09:58 UTC.
Position N 25°47' W 080°11'.

Length 51 m; draft 2.2 m.

Type: High speed craft. MMSI: 248984000.

Date/timePositionNaut miles runAvg speedWind from/ knotsBaromVisibWave heightAir tempDewpointWater temp
2018-May-20 10:00N 25°47' W 080°11'0 0.0
2018-May-20 09:30N 25°47' W 080°11'0 0.0
2018-May-20 09:00N 25°47' W 080°11'0 0.0
2018-May-20 08:30N 25°47' W 080°11'0 0.0
2018-May-20 08:00N 25°47' W 080°11'0 0.0
2018-May-20 07:30N 25°47' W 080°11'0 0.0
2018-May-20 07:00N 25°47' W 080°11'0 0.0
2018-May-20 06:30N 25°47' W 080°11'0 0.0
2018-May-20 06:00N 25°47' W 080°11'0 0.0
2018-May-20 05:30N 25°47' W 080°11'0 0.0
2018-May-20 05:00N 25°47' W 080°11'0 0.0
2018-May-20 04:30N 25°47' W 080°11'0 0.0
2018-May-20 04:00N 25°47' W 080°11'0 0.0
2018-May-20 03:30N 25°47' W 080°11'0 0.0
2018-May-20 03:00N 25°47' W 080°11'0 0.0
2018-May-20 02:30N 25°47' W 080°11'0 0.0
2018-May-20 02:00N 25°47' W 080°11'0 0.0
2018-May-20 01:30N 25°47' W 080°11'0 0.0
2018-May-20 01:00N 25°47' W 080°11'0 0.3
2018-May-20 00:31N 25°47' W 080°11'0 0.1
2018-May-20 00:00N 25°47' W 080°11'715.0
2018-May-19 23:30N 25°46' W 080°02'15 1.5
2018-May-19 13:59N 25°46' W 079°46'1532.4
2018-May-19 13:30N 25°46' W 080°03'714.1
2018-May-19 13:00N 25°47' W 080°11'0 0.0
2018-May-19 12:30N 25°47' W 080°11'0 0.0
2018-May-19 12:01N 25°47' W 080°11'0 0.0
2018-May-19 11:30N 25°47' W 080°11'0 0.0
2018-May-19 11:00N 25°47' W 080°11'0 0.0
2018-May-19 10:30N 25°47' W 080°11'0 0.0
2018-May-19 10:00N 25°47' W 080°11'0 0.0
2018-May-19 09:30N 25°47' W 080°11'0 0.0
2018-May-19 09:00N 25°47' W 080°11'0 0.0
2018-May-19 08:30N 25°47' W 080°11'0 0.0
2018-May-19 08:01N 25°47' W 080°11'0 0.0
2018-May-19 07:30N 25°47' W 080°11'0 0.0
2018-May-19 07:00N 25°47' W 080°11'0 0.0
2018-May-19 06:30N 25°47' W 080°11'0 0.0
2018-May-19 05:59N 25°47' W 080°11'0 0.0
2018-May-19 05:30N 25°47' W 080°11'0 0.0
2018-May-19 05:00N 25°47' W 080°11'0 0.0
2018-May-19 04:31N 25°47' W 080°11'0 0.0
2018-May-19 04:00N 25°47' W 080°11'0 0.0
2018-May-19 03:30N 25°47' W 080°11'0 0.0
2018-May-19 03:00N 25°47' W 080°11'0 0.0
2018-May-19 02:29N 25°47' W 080°11'0 0.0
2018-May-19 02:00N 25°47' W 080°11'0 0.0
2018-May-19 01:31N 25°47' W 080°11'0 0.0
2018-May-19 01:00N 25°47' W 080°11'0 0.0
2018-May-19 00:31N 25°47' W 080°11'0 0.4
2018-May-19 00:00N 25°47' W 080°11'714.1
2018-May-18 23:30N 25°46' W 080°03'15 1.7
2018-May-18 14:28N 25°46' W 079°46'1532.0
2018-May-18 14:01N 25°46' W 080°03'713.9
2018-May-18 13:30N 25°47' W 080°10'1 1.0
2018-May-18 13:00N 25°47' W 080°11'0 0.0
2018-May-18 12:30N 25°47' W 080°11'0 0.0
2018-May-18 12:01N 25°47' W 080°11'0 0.0
2018-May-18 11:31N 25°47' W 080°11'0 0.0
2018-May-18 11:01N 25°47' W 080°11'0 0.0
2018-May-18 10:31N 25°47' W 080°11'0 0.0
2018-May-18 10:01N 25°47' W 080°11'0 0.0
2018-May-18 09:30N 25°47' W 080°11'0 0.0
2018-May-18 09:01N 25°47' W 080°11'0 0.0
2018-May-18 08:30N 25°47' W 080°11'0 0.0
2018-May-18 07:59N 25°47' W 080°11'0 0.0
2018-May-18 07:30N 25°47' W 080°11'0 0.0
2018-May-18 07:00N 25°47' W 080°11'0 0.0
2018-May-18 06:30N 25°47' W 080°11'0 0.0
2018-May-18 06:00N 25°47' W 080°11'0 0.0
2018-May-18 05:30N 25°47' W 080°11'0 0.0
2018-May-18 05:00N 25°47' W 080°11'0 0.0
2018-May-18 04:30N 25°47' W 080°11'0 0.0
2018-May-18 04:00N 25°47' W 080°11'0 0.0
2018-May-18 03:30N 25°47' W 080°11'0 0.0
2018-May-18 03:00N 25°47' W 080°11'0 0.0
2018-May-18 02:30N 25°47' W 080°11'0 0.0
2018-May-18 02:00N 25°47' W 080°11'0 0.0
2018-May-18 01:30N 25°47' W 080°11'0 0.0
2018-May-18 01:00N 25°47' W 080°11'0 0.0
2018-May-18 00:31N 25°47' W 080°11'0 0.0
2018-May-18 00:00N 25°47' W 080°11'0 0.0
2018-May-17 23:30N 25°47' W 080°11'0 0.0
2018-May-17 23:01N 25°47' W 080°11'0 0.0
2018-May-17 22:30N 25°47' W 080°11'0 0.0
2018-May-17 22:01N 25°47' W 080°11'0 0.0
2018-May-17 21:30N 25°47' W 080°11'0 0.0
2018-May-17 21:00N 25°47' W 080°11'0 0.0
2018-May-17 20:30N 25°47' W 080°11'0 0.0
2018-May-17 20:00N 25°47' W 080°11'0 0.0
2018-May-17 19:30N 25°47' W 080°11'0 0.0
2018-May-17 19:01N 25°47' W 080°11'0 0.0
2018-May-17 18:30N 25°47' W 080°11'0 0.0
2018-May-17 18:00N 25°47' W 080°11'0 0.0
2018-May-17 17:30N 25°47' W 080°11'0 0.0
2018-May-17 17:00N 25°47' W 080°11'0 0.0
2018-May-17 16:30N 25°47' W 080°11'0 0.0
2018-May-17 16:01N 25°47' W 080°11'0 0.0
2018-May-17 15:30N 25°47' W 080°11'0 0.0
2018-May-17 15:00N 25°47' W 080°11'0 0.0
2018-May-17 14:30N 25°47' W 080°11'0 0.0
2018-May-17 14:00N 25°47' W 080°11'0 0.0
2018-May-17 13:30N 25°47' W 080°11'0 0.0
2018-May-17 13:00N 25°47' W 080°11'0 0.0
2018-May-17 12:31N 25°47' W 080°11'0 0.0
2018-May-17 12:01N 25°47' W 080°11'0 0.0
2018-May-17 11:30N 25°47' W 080°11'0 0.0
2018-May-17 11:00N 25°47' W 080°11'0 0.0
2018-May-17 10:30N 25°47' W 080°11'0 0.0
2018-May-17 10:01N 25°47' W 080°11'0 0.0
2018-May-17 09:30N 25°47' W 080°11'0 0.0
2018-May-17 09:00N 25°47' W 080°11'0 0.0
2018-May-17 08:31N 25°47' W 080°11'0 0.0
2018-May-17 08:00N 25°47' W 080°11'0 0.0
2018-May-17 07:30N 25°47' W 080°11'0 0.0
2018-May-17 07:00N 25°47' W 080°11'0 0.0
2018-May-17 06:30N 25°47' W 080°11'0 0.0
2018-May-17 06:01N 25°47' W 080°11'0 0.0
2018-May-17 05:30N 25°47' W 080°11'0 0.0
2018-May-17 05:00N 25°47' W 080°11'0 0.0
2018-May-17 04:30N 25°47' W 080°11'0 0.0
2018-May-17 04:00N 25°47' W 080°11'0 0.0
2018-May-17 03:30N 25°47' W 080°11'0 0.0
2018-May-17 03:00N 25°47' W 080°11'0 0.0
2018-May-17 02:30N 25°47' W 080°11'0 0.0
2018-May-17 02:00N 25°47' W 080°11'0 0.0
2018-May-17 01:31N 25°47' W 080°11'0 0.0
2018-May-17 01:00N 25°47' W 080°11'0 0.4
2018-May-17 00:30N 25°47' W 080°11'2 4.1
2018-May-17 00:01N 25°46' W 080°09'21 2.2
2018-May-16 14:27N 25°46' W 079°45'1328.8
2018-May-16 14:00N 25°46' W 079°59'1019.5
2018-May-16 13:31N 25°46' W 080°10'1 2.4
2018-May-16 13:00N 25°47' W 080°11'0 0.0
2018-May-16 12:30N 25°47' W 080°11'0 0.0
2018-May-16 12:00N 25°47' W 080°11'0 0.0
2018-May-16 11:30N 25°47' W 080°11'0 0.0
2018-May-16 11:00N 25°47' W 080°11'0 0.0
2018-May-16 10:30N 25°47' W 080°11'0 0.0
2018-May-16 10:00N 25°47' W 080°11'0 0.0
2018-May-16 09:30N 25°47' W 080°11'0 0.0
2018-May-16 09:00N 25°47' W 080°11'0 0.0
2018-May-16 08:30N 25°47' W 080°11'0 0.0
2018-May-16 08:00N 25°47' W 080°11'0 0.0
2018-May-16 07:30N 25°47' W 080°11'0 0.0
2018-May-16 07:00N 25°47' W 080°11'0 0.0
2018-May-16 06:30N 25°47' W 080°11'0 0.0
2018-May-16 06:00N 25°47' W 080°11'0 0.0
2018-May-16 05:29N 25°47' W 080°11'0 0.0
2018-May-16 05:00N 25°47' W 080°11'0 0.0
2018-May-16 04:30N 25°47' W 080°11'0 0.0
2018-May-16 04:00N 25°47' W 080°11'0 0.0
2018-May-16 03:30N 25°47' W 080°11'0 0.0
2018-May-16 03:00N 25°47' W 080°11'0 0.0
2018-May-16 02:30N 25°47' W 080°11'0 0.0
2018-May-16 02:00N 25°47' W 080°11'0 0.0
2018-May-16 01:30N 25°47' W 080°11'0 0.0
2018-May-16 01:00N 25°47' W 080°11'0 0.0
2018-May-16 00:30N 25°47' W 080°11'0 0.0
2018-May-16 00:00N 25°47' W 080°11'0 0.0
2018-May-15 23:30N 25°47' W 080°11'0 0.0
2018-May-15 23:00N 25°47' W 080°11'0 0.0
2018-May-15 22:30N 25°47' W 080°11'0 0.0
2018-May-15 22:00N 25°47' W 080°11'0 0.0
2018-May-15 21:30N 25°47' W 080°11'0 0.0
2018-May-15 21:00N 25°47' W 080°11'0 0.0
2018-May-15 20:30N 25°47' W 080°11'0 0.0
2018-May-15 20:00N 25°47' W 080°11'0 0.0
2018-May-15 19:30N 25°47' W 080°11'0 0.0
2018-May-15 19:00N 25°47' W 080°11'0 0.0
2018-May-15 18:30N 25°47' W 080°11'0 0.0
2018-May-15 18:00N 25°47' W 080°11'0 0.0
2018-May-15 17:30N 25°47' W 080°11'0 0.0
2018-May-15 17:01N 25°47' W 080°11'0 0.0
2018-May-15 16:30N 25°47' W 080°11'0 0.0
2018-May-15 16:00N 25°47' W 080°11'0 0.0
2018-May-15 15:30N 25°47' W 080°11'0 0.0
2018-May-15 15:00N 25°47' W 080°11'0 0.0
2018-May-15 14:30N 25°47' W 080°11'0 0.0
2018-May-15 14:00N 25°47' W 080°11'0 0.0
2018-May-15 13:30N 25°47' W 080°11'0 0.0
2018-May-15 13:00N 25°47' W 080°11'0 0.0
2018-May-15 12:30N 25°47' W 080°11'0 0.0
2018-May-15 12:00N 25°47' W 080°11'0 0.0
2018-May-15 11:30N 25°47' W 080°11'0 0.0
2018-May-15 11:00N 25°47' W 080°11'0 0.0
2018-May-15 10:30N 25°47' W 080°11'0 0.0
2018-May-15 10:00N 25°47' W 080°11'0 0.0
2018-May-15 09:30N 25°47' W 080°11'0 0.0
2018-May-15 09:00N 25°47' W 080°11'0 0.0
2018-May-15 08:30N 25°47' W 080°11'0 0.0
2018-May-15 08:00N 25°47' W 080°11'0 0.0
2018-May-15 07:30N 25°47' W 080°11'0 0.0
2018-May-15 07:00N 25°47' W 080°11'0 0.0
2018-May-15 06:30N 25°47' W 080°11'0 0.0
2018-May-15 05:59N 25°47' W 080°11'0 0.0
2018-May-15 05:30N 25°47' W 080°11'0 0.0
2018-May-15 05:00N 25°47' W 080°11'0 0.0
2018-May-15 04:30N 25°47' W 080°11'0 0.0
2018-May-15 04:00N 25°47' W 080°11'0 0.0
2018-May-15 03:30N 25°47' W 080°11'0 0.0
2018-May-15 03:00N 25°47' W 080°11'0 0.0
2018-May-15 02:30N 25°47' W 080°11'0 0.0
2018-May-15 02:00N 25°47' W 080°11'0 0.0
2018-May-15 01:29N 25°47' W 080°11'0 0.0
2018-May-15 00:59N 25°47' W 080°11'0 0.0
2018-May-15 00:30N 25°47' W 080°11'0 0.0
2018-May-15 00:00N 25°47' W 080°11'0 0.0
2018-May-14 23:30N 25°47' W 080°11'0 0.0
2018-May-14 23:00N 25°47' W 080°11'0 0.0
2018-May-14 22:30N 25°47' W 080°11'0 0.0
2018-May-14 22:00N 25°47' W 080°11'0 0.0
2018-May-14 21:30N 25°47' W 080°11'0 0.0
2018-May-14 21:00N 25°47' W 080°11'0 0.0
2018-May-14 20:30N 25°47' W 080°11'0 0.0
2018-May-14 20:00N 25°47' W 080°11'0 0.0
2018-May-14 19:30N 25°47' W 080°11'0 0.0
2018-May-14 19:00N 25°47' W 080°11'0 0.0
2018-May-14 18:30N 25°47' W 080°11'0 0.0
2018-May-14 18:00N 25°47' W 080°11'0 0.0
2018-May-14 17:30N 25°47' W 080°11'0 0.0
2018-May-14 17:00N 25°47' W 080°11'0 0.0
2018-May-14 16:30N 25°47' W 080°11'0 0.0
2018-May-14 16:00N 25°47' W 080°11'0 0.0
2018-May-14 15:30N 25°47' W 080°11'0 0.0
2018-May-14 15:00N 25°47' W 080°11'0 0.0
2018-May-14 14:30N 25°47' W 080°11'0 0.0
2018-May-14 14:00N 25°47' W 080°11'0 0.0
2018-May-14 13:30N 25°47' W 080°11'0 0.0
2018-May-14 13:00N 25°47' W 080°11'0 0.0
2018-May-14 12:30N 25°47' W 080°11'0 0.0
2018-May-14 12:00N 25°47' W 080°11'0 0.0
2018-May-14 11:30N 25°47' W 080°11'0 0.0
2018-May-14 11:00N 25°47' W 080°11'0 0.0
2018-May-14 10:30N 25°47' W 080°11'0 0.0
2018-May-14 10:00N 25°47' W 080°11'0 0.0
2018-May-14 09:30N 25°47' W 080°11'0 0.0
2018-May-14 09:00N 25°47' W 080°11'0 0.0
2018-May-14 08:30N 25°47' W 080°11'0 0.0
2018-May-14 08:00N 25°47' W 080°11'0 0.0
2018-May-14 07:30N 25°47' W 080°11'0 0.0
2018-May-14 07:00N 25°47' W 080°11'0 0.0
2018-May-14 06:30N 25°47' W 080°11'0 0.0
2018-May-14 06:00N 25°47' W 080°11'0 0.0
2018-May-14 05:30N 25°47' W 080°11'0 0.0
2018-May-14 05:00N 25°47' W 080°11'0 0.0
2018-May-14 04:30N 25°47' W 080°11'0 0.0
2018-May-14 04:00N 25°47' W 080°11'0 0.0
2018-May-14 03:30N 25°47' W 080°11'0 0.0
2018-May-14 03:00N 25°47' W 080°11'0 0.0
2018-May-14 02:30N 25°47' W 080°11'0 0.0
2018-May-14 02:00N 25°47' W 080°11'0 0.0
2018-May-14 01:30N 25°47' W 080°11'0 0.4
2018-May-14 01:00N 25°47' W 080°11'0 0.0
2018-May-14 00:30N 25°47' W 080°11'1 1.7
2018-May-14 00:00N 25°47' W 080°10'1323.4
2018-May-13 23:28N 25°46' W 079°56'12 1.3
2018-May-13 14:00N 25°46' W 079°42'1632.2
2018-May-13 13:30N 25°46' W 079°60'918.4
2018-May-13 13:00N 25°47' W 080°10'1 1.3
2018-May-13 12:30N 25°47' W 080°11'0 0.0
2018-May-13 12:00N 25°47' W 080°11'0 0.0
2018-May-13 11:30N 25°47' W 080°11'0 0.0
2018-May-13 11:00N 25°47' W 080°11'0 0.0
2018-May-13 10:30N 25°47' W 080°11'0 0.0
2018-May-13 10:01N 25°47' W 080°11'0 0.0
2018-May-13 09:30N 25°47' W 080°11'0 0.0
2018-May-13 09:00N 25°47' W 080°11'0 0.0
2018-May-13 08:31N 25°47' W 080°11'0 0.0
2018-May-13 08:01N 25°47' W 080°11'0 0.0
2018-May-13 07:31N 25°47' W 080°11'0 0.0
2018-May-13 07:00N 25°47' W 080°11'0 0.0
2018-May-13 06:31N 25°47' W 080°11'0 0.0
2018-May-13 05:59N 25°47' W 080°11'0 0.0
2018-May-13 05:30N 25°47' W 080°11'0 0.0
2018-May-13 05:01N 25°47' W 080°11'0 0.0
2018-May-13 04:30N 25°47' W 080°11'0 0.0
2018-May-13 04:00N 25°47' W 080°11'0 0.0
2018-May-13 03:30N 25°47' W 080°11'0 0.0
2018-May-13 03:01N 25°47' W 080°11'0 0.0
2018-May-13 02:30N 25°47' W 080°11'0 0.0
2018-May-13 02:00N 25°47' W 080°11'0 0.0
2018-May-13 01:30N 25°47' W 080°11'0 0.0
2018-May-13 01:00N 25°47' W 080°11'0 0.4
2018-May-13 00:30N 25°47' W 080°11'1 2.8
2018-May-13 00:00N 25°46' W 080°09'1122.3
2018-May-12 23:30N 25°46' W 079°57'10 1.2
2018-May-12 14:42N 25°46' W 079°45'631.6
2018-May-12 14:30N 25°46' W 079°52'1428.7
2018-May-12 14:01N 25°46' W 080°08'3 5.7
2018-May-12 13:31N 25°47' W 080°11'0 0.0
2018-May-12 13:01N 25°47' W 080°11'0 0.0
2018-May-12 12:31N 25°47' W 080°11'0 0.0
2018-May-12 12:00N 25°47' W 080°11'0 0.0
2018-May-12 11:30N 25°47' W 080°11'0 0.0
2018-May-12 11:01N 25°47' W 080°11'0 0.0
2018-May-12 10:30N 25°47' W 080°11'0 0.0
2018-May-12 10:01N 25°47' W 080°11'0 0.0
2018-May-12 09:30N 25°47' W 080°11'0 0.0
2018-May-12 09:00N 25°47' W 080°11'0 0.0
2018-May-12 08:30N 25°47' W 080°11'0 0.0
2018-May-12 08:01N 25°47' W 080°11'0 0.0
2018-May-12 07:30N 25°47' W 080°11'0 0.0
2018-May-12 07:01N 25°47' W 080°11'0 0.0
2018-May-12 06:30N 25°47' W 080°11'0 0.0
2018-May-12 06:00N 25°47' W 080°11'0 0.0
2018-May-12 05:30N 25°47' W 080°11'0 0.0
2018-May-12 05:00N 25°47' W 080°11'0 0.0
2018-May-12 04:30N 25°47' W 080°11'0 0.0
2018-May-12 04:01N 25°47' W 080°11'0 0.0
2018-May-12 03:30N 25°47' W 080°11'0 0.0
2018-May-12 03:00N 25°47' W 080°11'0 0.0
2018-May-12 02:30N 25°47' W 080°11'0 0.0
2018-May-12 02:01N 25°47' W 080°11'0 0.0
2018-May-12 01:31N 25°47' W 080°11'0 0.0
2018-May-12 01:00N 25°47' W 080°11'0 0.4
2018-May-12 00:31N 25°47' W 080°11'0 0.9
2018-May-12 00:00N 25°47' W 080°10'1020.1
2018-May-11 23:30N 25°46' W 079°59'11 1.2
2018-May-11 14:13N 25°46' W 079°46'626.7
2018-May-11 14:00N 25°46' W 079°53'1427.7
2018-May-11 13:30N 25°46' W 080°08'3 5.1
2018-May-11 13:00N 25°47' W 080°11'0 0.0
2018-May-11 12:30N 25°47' W 080°11'0 0.0
2018-May-11 12:00N 25°47' W 080°11'0 0.0
2018-May-11 11:30N 25°47' W 080°11'0 0.0
2018-May-11 11:00N 25°47' W 080°11'0 0.0
2018-May-11 10:30N 25°47' W 080°11'0 0.0
2018-May-11 10:00N 25°47' W 080°11'0 0.0
2018-May-11 09:30N 25°47' W 080°11'0 0.0
2018-May-11 09:00N 25°47' W 080°11'0 0.0
2018-May-11 08:30N 25°47' W 080°11'0 0.0
2018-May-11 08:00N 25°47' W 080°11'0 0.0
2018-May-11 07:30N 25°47' W 080°11'0 0.0
2018-May-11 07:00N 25°47' W 080°11'0 0.0
2018-May-11 06:30N 25°47' W 080°11'0 0.0
2018-May-11 06:00N 25°47' W 080°11'0 0.0
2018-May-11 05:30N 25°47' W 080°11'0 0.0
2018-May-11 05:00N 25°47' W 080°11'0 0.0
2018-May-11 04:29N 25°47' W 080°11'0 0.0
2018-May-11 04:00N 25°47' W 080°11'0 0.0
2018-May-11 03:30N 25°47' W 080°11'0 0.0
2018-May-11 03:00N 25°47' W 080°11'0 0.0
2018-May-11 02:30N 25°47' W 080°11'0 0.0
2018-May-11 02:00N 25°47' W 080°11'0 0.0
2018-May-11 01:30N 25°47' W 080°11'0 0.0
2018-May-11 01:00N 25°47' W 080°11'0 0.0
2018-May-11 00:30N 25°47' W 080°11'0 0.0
2018-May-11 00:00N 25°47' W 080°11'0 0.0
2018-May-10 23:30N 25°47' W 080°11'0 0.0
2018-May-10 23:00N 25°47' W 080°11'0 0.0
2018-May-10 22:30N 25°47' W 080°11'0 0.0
2018-May-10 22:00N 25°47' W 080°11'0 0.0
2018-May-10 21:30N 25°47' W 080°11'0 0.0
2018-May-10 21:00N 25°47' W 080°11'0 0.0
2018-May-10 20:30N 25°47' W 080°11'0 0.0
2018-May-10 20:00N 25°47' W 080°11'0 0.0
2018-May-10 19:30N 25°47' W 080°11'0 0.0
2018-May-10 19:00N 25°47' W 080°11'0 0.0
2018-May-10 18:30N 25°47' W 080°11'0 0.0
2018-May-10 18:00N 25°47' W 080°11'0 0.0
2018-May-10 17:30N 25°47' W 080°11'0 0.0
2018-May-10 17:00N 25°47' W 080°11'0 0.0
2018-May-10 16:30N 25°47' W 080°11'0 0.0
2018-May-10 16:00N 25°47' W 080°11'0 0.0
2018-May-10 15:30N 25°47' W 080°11'0 0.0
2018-May-10 15:00N 25°47' W 080°11'0 0.0
2018-May-10 14:30N 25°47' W 080°11'0 0.0
2018-May-10 14:00N 25°47' W 080°11'0 0.0
2018-May-10 13:30N 25°47' W 080°11'0 0.0
2018-May-10 13:00N 25°47' W 080°11'0 0.0
2018-May-10 12:30N 25°47' W 080°11'0 0.0
2018-May-10 12:00N 25°47' W 080°11'0 0.0
2018-May-10 11:30N 25°47' W 080°11'0 0.0
2018-May-10 11:00N 25°47' W 080°11'0 0.0
2018-May-10 10:29N 25°47' W 080°11'0 0.0
2018-May-10 10:00N 25°47' W 080°11'0 0.0
2018-May-10 09:30N 25°47' W 080°11'  

Dump ship's entire track history